Logan Peak - 24 Hour Table
Date & TimeSolar
Radiation
(W/m²)
Wind
Speed
(mph)
Wind
Direction
(degrees)
Air
Temperature
(°F)
Relative
Humidity
(%)
Barometeric
Pressure
(inHg)
2018/04/19 16:00 529 0.0 0 38.9 23 29.70
2018/04/19 15:00 438 0.0 0 36.3 24 29.68
2018/04/19 14:00 573 0.0 0 35.4 29 29.69
2018/04/19 13:00 823 0.0 0 34.2 30 29.70
2018/04/19 12:00 757 0.0 0 32.8 33 29.70
2018/04/19 11:00 626 0.0 0 30.2 35 29.73
2018/04/19 10:00 446 0.0 0 29.6 36 29.73
2018/04/19 09:00 233 0.0 0 29.4 29 29.72
2018/04/19 08:00 112 0.0 0 29.4 28 29.74
2018/04/19 07:00 35 0.0 0 28.9 27 29.74
2018/04/19 06:00 1 0.0 0 28.8 29 29.73
2018/04/19 05:00 0 0.0 0 28.7 28 29.74
2018/04/19 04:00 0 0.0 12 28.6 29 29.75
2018/04/19 03:00 0 0.0 0 28.1 30 29.75
2018/04/19 02:00 0 0.0 0 28.1 31 29.76
2018/04/19 01:00 0 0.0 0 28.6 31 29.77
2018/04/19 00:00 0 0.0 0 28.7 33 29.78
2018/04/18 23:00 0 0.0 0 29.5 33 29.78
2018/04/18 22:00 0 0.0 0 29.6 39 29.79
2018/04/18 21:00 0 0.0 0 29.9 37 29.81
2018/04/18 20:00 0 0.0 0 29.6 36 29.81
2018/04/18 19:00 34 0.0 0 29.5 38 29.81
2018/04/18 18:00 136 0.0 0 29.4 46 29.82
2018/04/18 17:00 414 0.0 0 30.6 54 29.83